createdAt,value
2017-04-02T00:00:33.005Z,0
2017-04-02T00:01:13.882Z,0
2017-04-02T00:01:54.755Z,0
2017-04-02T00:02:35.644Z,0
2017-04-02T00:03:16.529Z,0
2017-04-02T00:03:57.416Z,0
2017-04-02T00:04:38.349Z,0
2017-04-02T00:05:19.191Z,0
2017-04-02T00:06:00.079Z,0
2017-04-02T00:06:40.959Z,0
2017-04-02T00:07:21.847Z,0
2017-04-02T00:08:02.732Z,0
2017-04-02T00:08:43.622Z,0
2017-04-02T00:09:24.504Z,0
2017-04-02T00:10:05.389Z,0
2017-04-02T00:10:46.285Z,0
2017-04-02T00:11:27.171Z,0
2017-04-02T00:12:08.058Z,0
2017-04-02T00:12:48.942Z,0
2017-04-02T00:13:29.821Z,0
2017-04-02T00:14:10.709Z,0
2017-04-02T00:14:51.618Z,0
2017-04-02T00:15:32.497Z,0
2017-04-02T00:16:13.387Z,0
2017-04-02T00:16:54.270Z,0
2017-04-02T00:17:35.151Z,0
2017-04-02T00:18:16.035Z,0
2017-04-02T00:18:56.915Z,0
2017-04-02T00:19:37.802Z,0
2017-04-02T00:20:18.685Z,0
2017-04-02T00:20:59.610Z,0
2017-04-02T00:21:40.493Z,0
2017-04-02T00:22:21.371Z,0
2017-04-02T00:23:02.258Z,0
2017-04-02T00:23:43.146Z,0
2017-04-02T00:24:24.025Z,0
2017-04-02T00:25:04.909Z,0
2017-04-02T00:25:45.797Z,0
2017-04-02T00:26:26.684Z,0
2017-04-02T00:27:07.567Z,0
2017-04-02T00:27:48.448Z,0
2017-04-02T00:28:29.325Z,0
2017-04-02T00:29:10.212Z,0
2017-04-02T00:29:51.103Z,0
2017-04-02T00:30:31.983Z,0
2017-04-02T00:31:12.866Z,0
2017-04-02T00:31:53.749Z,0
2017-04-02T00:32:34.636Z,0
2017-04-02T00:33:15.518Z,0
2017-04-02T00:33:56.398Z,0
2017-04-02T00:34:37.286Z,0
2017-04-02T00:35:18.173Z,0
2017-04-02T00:35:59.059Z,0
2017-04-02T00:36:39.943Z,0
2017-04-02T00:37:20.831Z,0
2017-04-02T00:38:01.714Z,0
2017-04-02T00:38:42.600Z,0
2017-04-02T00:39:23.485Z,0
2017-04-02T00:40:04.374Z,0
2017-04-02T00:40:45.260Z,0
2017-04-02T00:41:26.140Z,0
2017-04-02T00:42:07.020Z,0
2017-04-02T00:42:47.953Z,0
2017-04-02T00:43:28.789Z,0
2017-04-02T00:44:09.671Z,0
2017-04-02T00:44:50.552Z,0
2017-04-02T00:45:31.438Z,0
2017-04-02T00:46:12.322Z,0
2017-04-02T00:46:53.204Z,0
2017-04-02T00:47:34.085Z,0
2017-04-02T00:48:14.990Z,0
2017-04-02T00:48:55.875Z,0
2017-04-02T00:49:36.762Z,0
2017-04-02T00:50:17.648Z,0
2017-04-02T00:50:58.531Z,0
2017-04-02T00:51:39.417Z,0
2017-04-02T00:52:20.302Z,0
2017-04-02T00:53:01.186Z,0
2017-04-02T00:53:42.066Z,0
2017-04-02T00:54:22.949Z,0
2017-04-02T00:55:03.831Z,0
2017-04-02T00:55:44.714Z,0
2017-04-02T00:56:25.597Z,0
2017-04-02T00:57:06.481Z,0
2017-04-02T00:57:47.364Z,0
2017-04-02T00:58:28.251Z,0
2017-04-02T00:59:09.133Z,0
2017-04-02T00:59:50.047Z,0
2017-04-02T01:00:30.900Z,0
2017-04-02T01:01:11.793Z,0
2017-04-02T01:01:52.709Z,0
2017-04-02T01:02:33.569Z,0
2017-04-02T01:03:14.457Z,0
2017-04-02T01:03:55.341Z,0
2017-04-02T01:04:36.226Z,0
2017-04-02T01:05:17.108Z,0
2017-04-02T01:05:57.994Z,0
2017-04-02T01:06:38.872Z,0
2017-04-02T01:07:19.756Z,0
2017-04-02T01:08:00.645Z,0
2017-04-02T01:08:41.534Z,0
2017-04-02T01:09:22.410Z,0
2017-04-02T01:10:03.289Z,0
2017-04-02T01:10:44.176Z,0
2017-04-02T01:11:25.061Z,0
2017-04-02T01:12:05.939Z,0
2017-04-02T01:12:46.827Z,0
2017-04-02T01:13:27.710Z,0
2017-04-02T01:14:08.601Z,0
2017-04-02T01:14:49.485Z,0
2017-04-02T01:15:30.372Z,0
2017-04-02T01:16:11.259Z,0
2017-04-02T01:16:52.144Z,0
2017-04-02T01:17:33.036Z,0
2017-04-02T01:18:13.919Z,0
2017-04-02T01:18:54.807Z,0
2017-04-02T01:19:35.702Z,0
2017-04-02T01:20:16.593Z,0
2017-04-02T01:20:57.477Z,0
2017-04-02T01:21:38.360Z,0
2017-04-02T01:22:19.242Z,0
2017-04-02T01:23:00.131Z,0
2017-04-02T01:23:41.018Z,0
2017-04-02T01:24:21.900Z,0
2017-04-02T01:25:02.791Z,0
2017-04-02T01:25:43.670Z,0
2017-04-02T01:26:24.545Z,0
2017-04-02T01:27:05.423Z,0
2017-04-02T01:27:46.308Z,0
2017-04-02T01:28:27.197Z,0
2017-04-02T01:29:08.076Z,0
2017-04-02T01:29:48.956Z,0
2017-04-02T01:30:29.842Z,0
2017-04-02T01:31:10.729Z,0
2017-04-02T01:31:51.682Z,0
2017-04-02T01:32:32.569Z,0
2017-04-02T01:33:13.456Z,0
2017-04-02T01:33:54.336Z,0
2017-04-02T01:34:35.224Z,0
2017-04-02T01:35:16.106Z,0
2017-04-02T01:35:56.985Z,0
2017-04-02T01:36:37.869Z,0
2017-04-02T01:37:18.765Z,0
2017-04-02T01:37:59.638Z,0
2017-04-02T01:38:40.522Z,0
2017-04-02T01:39:21.405Z,0
2017-04-02T01:40:02.289Z,0
2017-04-02T01:40:43.171Z,0
2017-04-02T01:41:24.062Z,0
2017-04-02T01:42:04.944Z,0
2017-04-02T01:42:45.845Z,0
2017-04-02T01:43:26.712Z,0
2017-04-02T01:44:07.596Z,0
2017-04-02T01:44:48.488Z,0
2017-04-02T01:45:29.372Z,0
2017-04-02T01:46:10.255Z,0
2017-04-02T01:46:51.145Z,0
2017-04-02T01:47:32.034Z,0
2017-04-02T01:48:13.465Z,0
2017-04-02T01:48:53.789Z,0
2017-04-02T01:49:34.671Z,0
2017-04-02T01:50:15.565Z,0
2017-04-02T01:50:56.449Z,0
2017-04-02T01:51:37.331Z,0
2017-04-02T01:52:18.209Z,0
2017-04-02T01:52:59.094Z,0
2017-04-02T01:53:40.019Z,0
2017-04-02T01:54:20.875Z,0
2017-04-02T01:55:01.755Z,0
2017-04-02T01:55:42.645Z,0
2017-04-02T01:56:23.529Z,0
2017-04-02T01:57:04.419Z,0
2017-04-02T01:57:45.306Z,0
2017-04-02T01:58:26.186Z,0
2017-04-02T01:59:07.071Z,0
2017-04-02T01:59:47.956Z,0
2017-04-02T02:00:28.850Z,0
2017-04-02T02:01:09.733Z,0
2017-04-02T02:01:50.622Z,0
2017-04-02T02:02:31.523Z,0
2017-04-02T02:03:12.401Z,0
2017-04-02T02:03:53.289Z,0
2017-04-02T02:04:34.181Z,0
2017-04-02T02:05:15.069Z,0
2017-04-02T02:05:55.949Z,0
2017-04-02T02:06:36.838Z,0
2017-04-02T02:07:17.734Z,0
2017-04-02T02:07:58.610Z,0
2017-04-02T02:08:39.486Z,0
2017-04-02T02:09:20.374Z,0
2017-04-02T02:10:01.246Z,0
2017-04-02T02:10:42.133Z,0
2017-04-02T02:11:23.018Z,0
2017-04-02T02:12:03.904Z,0
2017-04-02T02:12:44.802Z,0
2017-04-02T02:13:25.673Z,0
2017-04-02T02:14:06.555Z,0
2017-04-02T02:14:47.438Z,0
2017-04-02T02:15:28.327Z,0
2017-04-02T02:16:09.210Z,0
2017-04-02T02:16:50.092Z,0
2017-04-02T02:17:30.976Z,0
2017-04-02T02:18:11.868Z,0
2017-04-02T02:18:52.752Z,0
2017-04-02T02:19:33.634Z,0
2017-04-02T02:20:14.515Z,0
2017-04-02T02:20:55.395Z,0
2017-04-02T02:21:36.276Z,0
2017-04-02T02:22:17.158Z,0
2017-04-02T02:22:58.045Z,0
2017-04-02T02:23:38.927Z,0
2017-04-02T02:24:19.851Z,0
2017-04-02T02:25:00.701Z,0
2017-04-02T02:25:41.594Z,0
2017-04-02T02:26:22.487Z,0
2017-04-02T02:27:03.368Z,0
2017-04-02T02:27:44.255Z,0
2017-04-02T02:28:25.173Z,0
2017-04-02T02:29:06.027Z,0
2017-04-02T02:29:46.909Z,0
2017-04-02T02:30:27.794Z,0
2017-04-02T02:31:08.681Z,0
2017-04-02T02:31:49.566Z,0
2017-04-02T02:32:30.480Z,0
2017-04-02T02:33:11.366Z,0
2017-04-02T02:33:52.249Z,0
2017-04-02T02:34:33.128Z,0
2017-04-02T02:35:14.017Z,0
2017-04-02T02:35:54.895Z,0
2017-04-02T02:36:35.777Z,0
2017-04-02T02:37:16.661Z,0
2017-04-02T02:37:57.552Z,0
2017-04-02T02:38:38.440Z,0
2017-04-02T02:39:19.317Z,0
2017-04-02T02:40:00.200Z,0
2017-04-02T02:40:41.088Z,0
2017-04-02T02:41:21.964Z,0
2017-04-02T02:42:02.847Z,0
2017-04-02T02:42:43.729Z,0
2017-04-02T02:43:24.618Z,0
2017-04-02T02:44:05.506Z,0
2017-04-02T02:44:46.382Z,0
2017-04-02T02:45:27.271Z,0
2017-04-02T02:46:08.161Z,0
2017-04-02T02:46:49.035Z,0
2017-04-02T02:47:29.914Z,0
2017-04-02T02:48:10.793Z,0
2017-04-02T02:48:51.682Z,0
2017-04-02T02:49:32.560Z,0
2017-04-02T02:50:13.448Z,0
2017-04-02T02:50:54.332Z,0
2017-04-02T02:51:35.220Z,0
2017-04-02T02:52:16.100Z,0
2017-04-02T02:52:56.980Z,0
2017-04-02T02:53:37.862Z,0
2017-04-02T02:54:18.747Z,0
2017-04-02T02:54:59.629Z,0
2017-04-02T02:55:40.515Z,0
2017-04-02T02:56:21.401Z,0
2017-04-02T02:57:02.284Z,0
2017-04-02T02:57:43.169Z,0
2017-04-02T02:58:24.056Z,0
2017-04-02T02:59:04.928Z,0
2017-04-02T02:59:45.836Z,0
2017-04-02T03:00:26.720Z,0
2017-04-02T03:01:07.602Z,0
2017-04-02T03:01:48.484Z,0
2017-04-02T03:02:29.371Z,0
2017-04-02T03:03:10.253Z,0
2017-04-02T03:03:51.143Z,0
2017-04-02T03:04:32.027Z,0
2017-04-02T03:05:12.906Z,0
2017-04-02T03:05:53.785Z,0
2017-04-02T03:06:34.673Z,0
2017-04-02T03:07:15.558Z,0
2017-04-02T03:07:56.440Z,0
2017-04-02T03:08:37.323Z,0
2017-04-02T03:09:18.206Z,0
2017-04-02T03:09:59.111Z,0
2017-04-02T03:10:39.987Z,0
2017-04-02T03:11:20.866Z,0
2017-04-02T03:12:01.759Z,0
2017-04-02T03:12:42.647Z,0
2017-04-02T03:13:23.530Z,0
2017-04-02T03:14:04.414Z,0
2017-04-02T03:14:45.313Z,0
2017-04-02T03:15:26.185Z,0
2017-04-02T03:16:07.064Z,0
2017-04-02T03:16:47.945Z,0
2017-04-02T03:17:28.833Z,0
2017-04-02T03:18:09.718Z,0
2017-04-02T03:18:50.601Z,0
2017-04-02T03:19:31.483Z,0
2017-04-02T03:20:12.377Z,0
2017-04-02T03:20:53.255Z,0
2017-04-02T03:21:34.135Z,0
2017-04-02T03:22:15.017Z,0
2017-04-02T03:22:55.903Z,0
2017-04-02T03:23:36.786Z,0
2017-04-02T03:24:17.664Z,0
2017-04-02T03:24:58.549Z,0
2017-04-02T03:25:39.437Z,0
2017-04-02T03:26:20.317Z,0
2017-04-02T03:27:01.200Z,0
2017-04-02T03:27:42.084Z,0
2017-04-02T03:28:22.969Z,0
2017-04-02T03:29:03.868Z,0
2017-04-02T03:29:44.757Z,0
2017-04-02T03:30:25.646Z,0
2017-04-02T03:31:06.525Z,0
2017-04-02T03:31:47.404Z,0
2017-04-02T03:32:28.301Z,0
2017-04-02T03:33:09.189Z,0
2017-04-02T03:33:50.070Z,0
2017-04-02T03:34:30.951Z,0
2017-04-02T03:35:11.874Z,0
2017-04-02T03:35:52.723Z,0
2017-04-02T03:36:33.600Z,0
2017-04-02T03:37:14.480Z,0
2017-04-02T03:37:55.365Z,0
2017-04-02T03:38:36.279Z,0
2017-04-02T03:39:17.127Z,0
2017-04-02T03:39:58.006Z,0
2017-04-02T03:40:38.901Z,0
2017-04-02T03:41:19.790Z,0
2017-04-02T03:42:00.678Z,0
2017-04-02T03:42:41.563Z,0
2017-04-02T03:43:22.454Z,0
2017-04-02T03:44:03.335Z,0
2017-04-02T03:44:44.259Z,0
2017-04-02T03:45:25.100Z,0
2017-04-02T03:46:05.994Z,0
2017-04-02T03:46:46.868Z,0
2017-04-02T03:47:27.751Z,0
2017-04-02T03:48:08.633Z,0
2017-04-02T03:48:49.518Z,0
2017-04-02T03:49:30.402Z,0
2017-04-02T03:50:11.284Z,0
2017-04-02T03:50:52.176Z,0
2017-04-02T03:51:33.065Z,0
2017-04-02T03:52:13.952Z,0
2017-04-02T03:52:54.830Z,0
2017-04-02T03:53:35.722Z,0
2017-04-02T03:54:16.608Z,0
2017-04-02T03:54:57.492Z,0
2017-04-02T03:55:38.372Z,0
2017-04-02T03:56:19.260Z,0
2017-04-02T03:57:00.160Z,0
2017-04-02T03:57:41.065Z,0
2017-04-02T03:58:21.951Z,0
2017-04-02T03:59:02.835Z,0
2017-04-02T03:59:43.733Z,0
2017-04-02T04:00:24.653Z,0
2017-04-02T04:01:05.501Z,0
2017-04-02T04:01:46.378Z,0
2017-04-02T04:02:27.260Z,0
2017-04-02T04:03:08.152Z,0
2017-04-02T04:03:49.035Z,0
2017-04-02T04:04:29.914Z,4
2017-04-02T04:05:10.830Z,4
2017-04-02T04:05:51.706Z,4
2017-04-02T04:06:32.628Z,0
2017-04-02T04:07:13.478Z,0
2017-04-02T04:07:54.367Z,0
2017-04-02T04:08:35.250Z,4
2017-04-02T04:09:16.131Z,4
2017-04-02T04:09:57.022Z,0
2017-04-02T04:10:37.919Z,4
2017-04-02T04:11:18.812Z,4
2017-04-02T04:11:59.704Z,8
2017-04-02T04:12:40.586Z,4
2017-04-02T04:13:21.469Z,8
2017-04-02T04:14:02.352Z,4
2017-04-02T04:14:43.238Z,8
2017-04-02T04:15:24.119Z,8
2017-04-02T04:16:05.001Z,8
2017-04-02T04:16:45.879Z,12
2017-04-02T04:17:26.765Z,12
2017-04-02T04:18:07.647Z,12
2017-04-02T04:18:48.532Z,12
2017-04-02T04:19:29.418Z,12
2017-04-02T04:20:10.307Z,12
2017-04-02T04:20:51.187Z,16
2017-04-02T04:21:32.066Z,16
2017-04-02T04:22:12.952Z,24
2017-04-02T04:22:53.836Z,24
2017-04-02T04:23:34.720Z,24
2017-04-02T04:24:15.601Z,28
2017-04-02T04:24:56.486Z,32
2017-04-02T04:27:05.476Z,40
2017-04-02T04:27:46.362Z,48
2017-04-02T04:28:27.253Z,52
2017-04-02T04:29:08.144Z,56
2017-04-02T04:29:49.027Z,60
2017-04-02T04:30:29.898Z,64
2017-04-02T04:31:10.797Z,72
2017-04-02T04:31:51.677Z,76
2017-04-02T04:32:32.563Z,84
2017-04-02T04:33:13.447Z,92
2017-04-02T04:33:54.335Z,96
2017-04-02T04:34:35.216Z,104
2017-04-02T04:35:16.110Z,112
2017-04-02T04:35:56.988Z,116
2017-04-02T04:36:37.869Z,128
2017-04-02T04:37:18.752Z,136
2017-04-02T04:37:59.626Z,140
2017-04-02T04:38:40.508Z,152
2017-04-02T04:39:21.397Z,160
2017-04-02T04:40:02.270Z,168
2017-04-02T04:40:43.152Z,184
2017-04-02T04:41:24.040Z,192
2017-04-02T04:42:04.915Z,204
2017-04-02T04:42:45.798Z,216
2017-04-02T04:43:26.679Z,228
2017-04-02T04:44:07.562Z,244
2017-04-02T04:44:48.454Z,252
2017-04-02T04:45:29.339Z,268
2017-04-02T04:46:10.216Z,280
2017-04-02T04:46:51.099Z,300
2017-04-02T04:47:31.985Z,312
2017-04-02T04:48:12.865Z,328
2017-04-02T04:48:53.751Z,344
2017-04-02T04:49:34.635Z,360
2017-04-02T04:50:15.523Z,376
2017-04-02T04:50:56.414Z,392
2017-04-02T04:51:37.298Z,408
2017-04-02T04:52:18.181Z,420
2017-04-02T04:52:59.066Z,432
2017-04-02T04:53:39.949Z,448
2017-04-02T04:54:20.838Z,468
2017-04-02T04:55:01.723Z,488
2017-04-02T04:55:42.606Z,508
2017-04-02T04:56:23.489Z,532
2017-04-02T04:57:04.374Z,556
2017-04-02T04:57:45.258Z,576
2017-04-02T04:58:26.139Z,592
2017-04-02T04:59:07.022Z,612
2017-04-02T04:59:47.909Z,632
2017-04-02T05:00:28.798Z,652
2017-04-02T05:01:09.679Z,668
2017-04-02T05:01:50.627Z,688
2017-04-02T05:02:31.510Z,704
2017-04-02T05:03:12.390Z,724
2017-04-02T05:03:53.276Z,744
2017-04-02T05:04:34.162Z,756
2017-04-02T05:05:15.046Z,768
2017-04-02T05:05:55.936Z,776
2017-04-02T05:06:36.818Z,792
2017-04-02T05:07:17.704Z,804
2017-04-02T05:07:58.578Z,828
2017-04-02T05:08:39.463Z,852
2017-04-02T05:09:20.341Z,884
2017-04-02T05:10:01.225Z,916
2017-04-02T05:10:42.100Z,960
2017-04-02T05:11:22.989Z,1008
2017-04-02T05:12:03.860Z,1056
2017-04-02T05:12:44.750Z,1100
2017-04-02T05:13:25.630Z,1148
2017-04-02T05:14:06.513Z,1200
2017-04-02T05:14:47.397Z,1248
2017-04-02T05:15:28.283Z,1296
2017-04-02T05:16:09.164Z,1344
2017-04-02T05:16:50.053Z,1384
2017-04-02T05:17:30.936Z,1432
2017-04-02T05:18:11.827Z,1472
2017-04-02T05:18:52.718Z,1520
2017-04-02T05:19:33.603Z,1560
2017-04-02T05:20:14.503Z,1600
2017-04-02T05:20:55.384Z,1644
2017-04-02T05:21:36.267Z,1680
2017-04-02T05:22:17.151Z,1724
2017-04-02T05:22:58.022Z,1768
2017-04-02T05:23:38.904Z,1808
2017-04-02T05:24:19.787Z,1840
2017-04-02T05:25:00.670Z,1868
2017-04-02T05:25:41.559Z,1892
2017-04-02T05:26:22.439Z,1904
2017-04-02T05:27:03.318Z,1920
2017-04-02T05:27:44.200Z,1932
2017-04-02T05:28:25.081Z,1936
2017-04-02T05:29:05.962Z,1936
2017-04-02T05:29:46.848Z,1936
2017-04-02T05:30:27.735Z,1956
2017-04-02T05:31:08.622Z,1960
2017-04-02T05:31:49.519Z,1968
2017-04-02T05:32:30.405Z,1996
2017-04-02T05:33:11.297Z,2052
2017-04-02T05:33:52.181Z,2112
2017-04-02T05:34:33.060Z,2168
2017-04-02T05:35:13.947Z,2216
2017-04-02T05:35:54.835Z,2264
2017-04-02T05:36:35.718Z,2312
2017-04-02T05:37:16.600Z,2368
2017-04-02T05:37:57.495Z,2412
2017-04-02T05:38:38.378Z,2452
2017-04-02T05:39:19.265Z,2496
2017-04-02T05:40:00.150Z,2536
2017-04-02T05:40:41.028Z,2572
2017-04-02T05:41:21.920Z,2616
2017-04-02T05:42:02.798Z,2652
2017-04-02T05:42:43.682Z,2688
2017-04-02T05:43:24.559Z,2720
2017-04-02T05:44:05.444Z,2768
2017-04-02T05:44:46.327Z,2812
2017-04-02T05:45:27.208Z,2856
2017-04-02T05:46:08.093Z,2896
2017-04-02T05:46:48.978Z,2936
2017-04-02T05:47:29.863Z,2976
2017-04-02T05:48:10.753Z,3004
2017-04-02T05:48:51.651Z,3040
2017-04-02T05:49:32.539Z,3068
2017-04-02T05:50:13.427Z,3084
2017-04-02T05:50:54.297Z,3088
2017-04-02T05:51:35.182Z,3100
2017-04-02T05:52:16.056Z,3104
2017-04-02T05:52:56.938Z,3112
2017-04-02T05:53:37.824Z,3108
2017-04-02T05:54:18.707Z,3104
2017-04-02T05:54:59.600Z,3064
2017-04-02T05:55:40.489Z,2988
2017-04-02T05:56:21.381Z,2900
2017-04-02T05:57:02.264Z,2888
2017-04-02T05:57:43.150Z,2916
2017-04-02T05:58:24.050Z,2924
2017-04-02T05:59:04.918Z,2916
2017-04-02T05:59:45.795Z,2936
2017-04-02T06:00:26.680Z,2980
2017-04-02T06:01:07.561Z,3052
2017-04-02T06:01:48.444Z,3148
2017-04-02T06:02:29.325Z,3256
2017-04-02T06:03:10.211Z,3368
2017-04-02T06:03:51.095Z,3500
2017-04-02T06:04:31.977Z,3644
2017-04-02T06:05:12.860Z,3780
2017-04-02T06:05:53.744Z,3884
2017-04-02T06:06:34.641Z,3964
2017-04-02T06:07:15.527Z,4028
2017-04-02T06:07:56.410Z,4072
2017-04-02T06:08:37.290Z,4112
2017-04-02T06:09:18.176Z,4132
2017-04-02T06:09:59.061Z,4144
2017-04-02T06:10:39.943Z,4168
2017-04-02T06:11:20.824Z,4204
2017-04-02T06:12:01.706Z,4232
2017-04-02T06:12:42.593Z,4248
2017-04-02T06:13:23.474Z,4256
2017-04-02T06:14:04.355Z,4252
2017-04-02T06:14:45.237Z,4228
2017-04-02T06:15:26.124Z,4236
2017-04-02T06:16:07.000Z,4312
2017-04-02T06:16:47.878Z,4356
2017-04-02T06:17:28.760Z,4396
2017-04-02T06:18:09.645Z,4456
2017-04-02T06:18:50.529Z,4560
2017-04-02T06:19:31.410Z,4684
2017-04-02T06:20:12.291Z,4740
2017-04-02T06:20:53.177Z,4860
2017-04-02T06:21:34.066Z,5048
2017-04-02T06:22:14.942Z,5256
2017-04-02T06:22:55.829Z,5576
2017-04-02T06:23:36.717Z,5968
2017-04-02T06:24:17.601Z,6348
2017-04-02T06:24:58.483Z,6732
2017-04-02T06:25:39.367Z,6900
2017-04-02T06:26:20.258Z,7032
2017-04-02T06:27:01.130Z,7056
2017-04-02T06:27:42.010Z,7148
2017-04-02T06:28:22.890Z,7184
2017-04-02T06:29:03.781Z,7332
2017-04-02T06:29:44.668Z,7560
2017-04-02T06:30:25.545Z,7680
2017-04-02T06:31:06.423Z,7772
2017-04-02T06:31:47.313Z,7836
2017-04-02T06:32:28.234Z,8124
2017-04-02T06:33:09.119Z,8312
2017-04-02T06:33:50.005Z,8472
2017-04-02T06:34:30.889Z,8672
2017-04-02T06:35:11.769Z,8708
2017-04-02T06:35:52.647Z,8548
2017-04-02T06:36:33.535Z,8440
2017-04-02T06:37:14.412Z,8320
2017-04-02T06:37:55.290Z,8012
2017-04-02T06:38:36.171Z,7500
2017-04-02T06:39:17.059Z,6940
2017-04-02T06:39:57.943Z,6772
2017-04-02T06:40:38.823Z,6632
2017-04-02T06:41:19.735Z,6500
2017-04-02T06:42:00.615Z,6320
2017-04-02T06:42:41.497Z,6592
2017-04-02T06:43:22.381Z,6884
2017-04-02T06:44:03.267Z,7072
2017-04-02T06:44:44.151Z,7260
2017-04-02T06:45:25.029Z,7500
2017-04-02T06:46:05.920Z,7648
2017-04-02T06:46:46.806Z,7800
2017-04-02T06:47:27.687Z,7988
2017-04-02T06:48:08.567Z,8100
2017-04-02T06:48:49.463Z,8148
2017-04-02T06:49:30.353Z,8384
2017-04-02T06:50:11.236Z,8476
2017-04-02T06:50:52.122Z,8488
2017-04-02T06:51:33.011Z,8272
2017-04-02T06:52:13.894Z,7812
2017-04-02T06:52:54.773Z,7484
2017-04-02T06:53:35.656Z,7364
2017-04-02T06:54:16.539Z,7384
2017-04-02T06:54:57.430Z,7544
2017-04-02T06:55:38.303Z,7764
2017-04-02T06:56:19.188Z,8348
2017-04-02T06:57:00.059Z,8856
2017-04-02T06:57:40.943Z,9228
2017-04-02T06:58:21.817Z,9496
2017-04-02T06:59:02.695Z,9632
2017-04-02T06:59:43.583Z,9464
2017-04-02T07:00:24.469Z,9136
2017-04-02T07:01:05.358Z,8844
2017-04-02T07:01:46.235Z,8260
2017-04-02T07:02:27.118Z,7880
2017-04-02T07:03:08.007Z,7868
2017-04-02T07:03:48.888Z,7796
2017-04-02T07:04:29.774Z,7820
2017-04-02T07:05:10.661Z,7708
2017-04-02T07:05:51.548Z,7708
2017-04-02T07:06:32.447Z,7460
2017-04-02T07:07:13.337Z,7384
2017-04-02T07:09:23.314Z,8476
2017-04-02T07:10:04.192Z,9440
2017-04-02T07:10:45.069Z,10400
2017-04-02T07:11:25.952Z,11132
2017-04-02T07:12:06.845Z,11308
2017-04-02T07:12:47.718Z,11028
2017-04-02T07:13:28.601Z,10552
2017-04-02T07:14:09.483Z,10172
2017-04-02T07:14:50.385Z,9768
2017-04-02T07:15:31.265Z,9352
2017-04-02T07:16:12.154Z,8776
2017-04-02T07:16:53.052Z,8268
2017-04-02T07:17:33.927Z,8120
2017-04-02T07:18:14.803Z,8212
2017-04-02T07:18:55.693Z,7888
2017-04-02T07:19:36.586Z,7980
2017-04-02T07:20:17.460Z,8252
2017-04-02T07:20:58.339Z,8404
2017-04-02T07:21:39.228Z,8468
2017-04-02T07:22:20.116Z,8596
2017-04-02T07:23:00.993Z,8804
2017-04-02T07:23:41.870Z,9056
2017-04-02T07:24:22.762Z,9528
2017-04-02T07:25:03.654Z,10076
2017-04-02T07:25:44.542Z,10708
2017-04-02T07:26:25.429Z,11792
2017-04-02T07:27:06.348Z,12532
2017-04-02T07:27:47.227Z,12784
2017-04-02T07:28:28.126Z,12512
2017-04-02T07:29:09.010Z,11908
2017-04-02T07:29:49.892Z,11504
2017-04-02T07:30:30.786Z,10988
2017-04-02T07:31:11.677Z,10684
2017-04-02T07:31:52.552Z,10308
2017-04-02T07:32:33.564Z,9848
2017-04-02T07:33:14.368Z,9332
2017-04-02T07:33:55.253Z,8628
2017-04-02T07:34:36.154Z,7872
2017-04-02T07:35:17.038Z,7240
2017-04-02T07:35:57.918Z,6692
2017-04-02T07:36:38.806Z,6216
2017-04-02T07:37:19.703Z,5824
2017-04-02T07:38:00.582Z,5552
2017-04-02T07:38:41.457Z,5404
2017-04-02T07:39:22.339Z,5340
2017-04-02T07:40:03.229Z,5288
2017-04-02T07:40:44.113Z,5316
2017-04-02T07:41:24.986Z,5228
2017-04-02T07:42:05.879Z,5052
2017-04-02T07:42:46.769Z,4992
2017-04-02T07:43:27.641Z,5100
2017-04-02T07:44:08.522Z,5360
2017-04-02T07:44:49.412Z,5768
2017-04-02T07:45:30.301Z,6332
2017-04-02T07:46:11.183Z,7048
2017-04-02T07:46:52.057Z,7604
2017-04-02T07:47:32.941Z,7836
2017-04-02T07:48:13.829Z,8212
2017-04-02T07:48:54.706Z,8892
2017-04-02T07:49:35.593Z,9736
2017-04-02T07:50:16.481Z,10232
2017-04-02T07:50:57.375Z,10120
2017-04-02T07:51:38.253Z,9992
2017-04-02T07:52:19.135Z,9964
2017-04-02T07:53:00.009Z,10056
2017-04-02T07:53:40.892Z,10352
2017-04-02T07:54:21.776Z,9512
2017-04-02T07:55:02.658Z,8820
2017-04-02T07:55:43.543Z,8940
2017-04-02T07:56:24.430Z,9020
2017-04-02T07:57:05.312Z,9616
2017-04-02T07:57:46.188Z,10656
2017-04-02T07:58:27.078Z,11560
2017-04-02T07:59:07.962Z,13192
2017-04-02T07:59:48.849Z,12292
2017-04-02T08:00:29.735Z,12936
2017-04-02T08:01:10.633Z,14076
2017-04-02T08:01:51.527Z,18080
2017-04-02T08:02:32.417Z,24768
2017-04-02T08:03:13.307Z,29600
2017-04-02T08:03:54.191Z,21952
2017-04-02T08:04:35.116Z,16832
2017-04-02T08:05:15.966Z,15612
2017-04-02T08:05:56.855Z,14928
2017-04-02T08:06:37.741Z,14432
2017-04-02T08:07:18.634Z,14636
2017-04-02T08:07:59.522Z,13244
2017-04-02T08:08:40.399Z,12320
2017-04-02T08:09:21.286Z,12308
2017-04-02T08:10:02.162Z,12856
2017-04-02T08:10:43.071Z,14828
2017-04-02T08:11:23.960Z,16320
2017-04-02T08:12:04.843Z,18560
2017-04-02T08:12:45.770Z,27744
2017-04-02T08:13:26.671Z,15392
2017-04-02T08:14:07.561Z,13428
2017-04-02T08:14:48.472Z,14632
2017-04-02T08:15:29.376Z,18784
2017-04-02T08:16:10.262Z,23776
2017-04-02T08:16:51.154Z,29760
2017-04-02T08:17:32.053Z,14412
2017-04-02T08:18:12.952Z,14084
2017-04-02T08:18:53.857Z,14400
2017-04-02T08:19:34.736Z,15356
2017-04-02T08:20:15.626Z,15544
2017-04-02T08:20:56.525Z,15716
2017-04-02T08:21:37.415Z,16288
2017-04-02T08:22:18.301Z,24672
2017-04-02T08:22:59.187Z,18240
2017-04-02T08:23:40.078Z,17920
2017-04-02T08:24:20.967Z,18752
2017-04-02T08:25:01.859Z,29344
2017-04-02T08:25:42.748Z,24704
2017-04-02T08:26:23.624Z,27136
2017-04-02T08:27:04.515Z,24256
2017-04-02T08:27:45.408Z,24672
2017-04-02T08:28:26.287Z,19872
2017-04-02T08:29:07.179Z,15968
2017-04-02T08:29:48.076Z,14048
2017-04-02T08:30:28.966Z,13360
2017-04-02T08:31:09.855Z,12952
2017-04-02T08:31:50.746Z,13008
2017-04-02T08:32:31.637Z,13800
2017-04-02T08:33:12.526Z,25248
2017-04-02T08:33:53.419Z,25376
2017-04-02T08:34:34.311Z,43136
2017-04-02T08:35:15.202Z,39488
2017-04-02T08:35:56.094Z,14056
2017-04-02T08:36:36.989Z,11992
2017-04-02T08:37:17.876Z,11112
2017-04-02T08:37:58.766Z,11136
2017-04-02T08:38:39.661Z,11508
2017-04-02T08:39:20.545Z,11768
2017-04-02T08:40:01.438Z,12704
2017-04-02T08:40:42.330Z,19520
2017-04-02T08:41:23.218Z,15168
2017-04-02T08:42:04.113Z,32064
2017-04-02T08:42:45.004Z,38144
2017-04-02T08:43:25.919Z,29248
2017-04-02T08:44:06.777Z,16628
2017-04-02T08:44:47.671Z,19744
2017-04-02T08:45:28.562Z,34080
2017-04-02T08:46:09.455Z,38048
2017-04-02T08:46:50.347Z,20896
2017-04-02T08:47:31.236Z,17984
2017-04-02T08:48:12.128Z,16832
2017-04-02T08:48:53.019Z,16208
2017-04-02T08:49:33.908Z,17824
2017-04-02T08:50:14.792Z,33344
2017-04-02T08:50:55.699Z,44736
2017-04-02T08:51:36.585Z,42272
2017-04-02T08:52:17.473Z,41312
2017-04-02T08:52:58.372Z,39552
2017-04-02T08:53:39.259Z,18816
2017-04-02T08:54:20.145Z,21312
2017-04-02T08:55:01.042Z,15172
2017-04-02T08:55:41.934Z,22976
2017-04-02T08:56:22.822Z,23680
2017-04-02T08:57:03.727Z,14956
2017-04-02T08:57:44.612Z,13648
2017-04-02T08:58:25.509Z,13092
2017-04-02T08:59:06.401Z,12984
2017-04-02T08:59:47.285Z,13300
2017-04-02T09:00:28.175Z,13936
2017-04-02T09:01:09.058Z,14804
2017-04-02T09:01:49.956Z,18336
2017-04-02T09:02:30.848Z,18304
2017-04-02T09:03:11.737Z,18432
2017-04-02T09:03:52.650Z,19232
2017-04-02T09:04:33.543Z,18752
2017-04-02T09:05:14.436Z,18880
2017-04-02T09:05:55.328Z,19424
2017-04-02T09:06:36.245Z,20256
2017-04-02T09:07:17.134Z,21120
2017-04-02T09:07:58.018Z,21344
2017-04-02T09:08:38.915Z,21344
2017-04-02T09:09:19.806Z,20576
2017-04-02T09:10:00.694Z,18688
2017-04-02T09:10:41.596Z,18240
2017-04-02T09:11:22.493Z,17696
2017-04-02T09:12:03.389Z,17024
2017-04-02T09:12:44.290Z,16928
2017-04-02T09:13:25.182Z,16832
2017-04-02T09:14:06.078Z,17152
2017-04-02T09:14:46.974Z,18016
2017-04-02T09:15:27.865Z,19776
2017-04-02T09:16:08.767Z,20448
2017-04-02T09:16:49.658Z,18752
2017-04-02T09:17:30.551Z,17088
2017-04-02T09:18:11.451Z,15852
2017-04-02T09:18:52.351Z,19456
2017-04-02T09:19:33.249Z,20352
2017-04-02T09:20:14.146Z,22144
2017-04-02T09:20:55.079Z,23168
2017-04-02T09:21:35.975Z,22368
2017-04-02T09:22:16.869Z,22208
2017-04-02T09:22:57.754Z,20704
2017-04-02T09:23:38.643Z,20832
2017-04-02T09:24:19.542Z,20864
2017-04-02T09:25:00.440Z,19072
2017-04-02T09:25:41.356Z,17536
2017-04-02T09:26:22.257Z,18848
2017-04-02T09:27:03.149Z,20896
2017-04-02T09:27:44.055Z,21632
2017-04-02T09:28:24.939Z,23776
2017-04-02T09:29:05.833Z,22752
2017-04-02T09:29:46.730Z,29888
2017-04-02T09:30:27.619Z,51200
2017-04-02T09:31:08.513Z,36736
2017-04-02T09:31:49.414Z,35040